Aviation Digital Data Service (ADDS)

Output produced by METARs form (1521 UTC 22 October 2014)
found at http://aviationweather.gov/adds/metars/
 
KRUT 221130Z 2212/2312 32006KT P6SM OVC020 
     TEMPO 2214/2218 -RA OVC015 
     FM221800 34010KT 5SM -RA BR OVC015 
     FM230000 36010KT 3SM RA BR OVC007